sensor_id;sensor_type;location;lat;lon;timestamp;P1;durP1;ratioP1;P2;durP2;ratioP2
76640;SDS011;65538;50.798;6.064;2023-02-23T00:00:51;71.15;;;38.35;;
76640;SDS011;65538;50.798;6.064;2023-02-23T00:03:17;73.03;;;39.72;;
76640;SDS011;65538;50.798;6.064;2023-02-23T00:05:42;72.47;;;41.05;;
76640;SDS011;65538;50.798;6.064;2023-02-23T00:08:07;72.40;;;39.67;;
76640;SDS011;65538;50.798;6.064;2023-02-23T00:10:33;71.22;;;38.70;;
76640;SDS011;65538;50.798;6.064;2023-02-23T00:12:58;73.23;;;40.67;;
76640;SDS011;65538;50.798;6.064;2023-02-23T00:15:27;75.43;;;40.00;;
76640;SDS011;65538;50.798;6.064;2023-02-23T00:17:53;80.30;;;42.40;;
76640;SDS011;65538;50.798;6.064;2023-02-23T00:20:20;77.35;;;41.40;;
76640;SDS011;65538;50.798;6.064;2023-02-23T00:22:49;78.75;;;42.47;;
76640;SDS011;65538;50.798;6.064;2023-02-23T00:25:16;82.07;;;40.65;;
76640;SDS011;65538;50.798;6.064;2023-02-23T00:27:42;76.18;;;40.50;;
76640;SDS011;65538;50.798;6.064;2023-02-23T00:30:13;77.80;;;41.67;;
76640;SDS011;65538;50.798;6.064;2023-02-23T00:32:39;77.47;;;39.85;;
76640;SDS011;65538;50.798;6.064;2023-02-23T00:35:05;80.72;;;41.03;;
76640;SDS011;65538;50.798;6.064;2023-02-23T00:37:35;79.63;;;41.22;;
76640;SDS011;65538;50.798;6.064;2023-02-23T00:40:01;75.95;;;39.67;;
76640;SDS011;65538;50.798;6.064;2023-02-23T00:42:27;79.68;;;42.22;;
76640;SDS011;65538;50.798;6.064;2023-02-23T00:44:56;76.07;;;40.20;;
76640;SDS011;65538;50.798;6.064;2023-02-23T00:47:21;76.53;;;39.63;;
76640;SDS011;65538;50.798;6.064;2023-02-23T00:49:46;78.70;;;41.70;;
76640;SDS011;65538;50.798;6.064;2023-02-23T00:52:11;79.67;;;43.50;;
76640;SDS011;65538;50.798;6.064;2023-02-23T00:54:38;68.43;;;35.92;;
76640;SDS011;65538;50.798;6.064;2023-02-23T00:57:03;70.97;;;37.80;;
76640;SDS011;65538;50.798;6.064;2023-02-23T00:59:29;80.73;;;39.27;;
76640;SDS011;65538;50.798;6.064;2023-02-23T01:01:54;85.83;;;43.30;;
76640;SDS011;65538;50.798;6.064;2023-02-23T01:04:19;80.90;;;41.03;;
76640;SDS011;65538;50.798;6.064;2023-02-23T01:06:46;80.03;;;41.42;;
76640;SDS011;65538;50.798;6.064;2023-02-23T01:09:13;94.07;;;43.23;;
76640;SDS011;65538;50.798;6.064;2023-02-23T01:11:40;99.28;;;46.05;;
76640;SDS011;65538;50.798;6.064;2023-02-23T01:14:05;101.13;;;45.85;;
76640;SDS011;65538;50.798;6.064;2023-02-23T01:16:32;106.53;;;49.47;;
76640;SDS011;65538;50.798;6.064;2023-02-23T01:18:57;113.90;;;49.97;;
76640;SDS011;65538;50.798;6.064;2023-02-23T01:21:24;103.82;;;45.53;;
76640;SDS011;65538;50.798;6.064;2023-02-23T01:23:50;117.53;;;49.13;;
76640;SDS011;65538;50.798;6.064;2023-02-23T01:26:20;105.80;;;45.70;;
76640;SDS011;65538;50.798;6.064;2023-02-23T01:28:49;109.30;;;45.63;;
76640;SDS011;65538;50.798;6.064;2023-02-23T01:31:14;106.22;;;44.72;;
76640;SDS011;65538;50.798;6.064;2023-02-23T01:33:40;101.33;;;44.43;;
76640;SDS011;65538;50.798;6.064;2023-02-23T01:36:05;94.22;;;40.78;;
76640;SDS011;65538;50.798;6.064;2023-02-23T01:38:31;97.15;;;44.05;;
76640;SDS011;65538;50.798;6.064;2023-02-23T01:40:56;102.07;;;45.20;;
76640;SDS011;65538;50.798;6.064;2023-02-23T01:43:21;106.97;;;45.20;;
76640;SDS011;65538;50.798;6.064;2023-02-23T01:45:50;104.78;;;43.47;;
76640;SDS011;65538;50.798;6.064;2023-02-23T01:48:19;110.30;;;45.03;;
76640;SDS011;65538;50.798;6.064;2023-02-23T01:50:56;107.85;;;46.08;;
76640;SDS011;65538;50.798;6.064;2023-02-23T01:53:24;113.68;;;45.08;;
76640;SDS011;65538;50.798;6.064;2023-02-23T01:55:52;116.10;;;46.85;;
76640;SDS011;65538;50.798;6.064;2023-02-23T01:58:19;116.82;;;47.05;;
76640;SDS011;65538;50.798;6.064;2023-02-23T02:00:46;115.53;;;46.00;;
76640;SDS011;65538;50.798;6.064;2023-02-23T02:03:14;114.07;;;46.95;;
76640;SDS011;65538;50.798;6.064;2023-02-23T02:05:41;113.03;;;45.45;;
76640;SDS011;65538;50.798;6.064;2023-02-23T02:08:07;104.47;;;46.22;;
76640;SDS011;65538;50.798;6.064;2023-02-23T02:10:34;105.78;;;44.80;;
76640;SDS011;65538;50.798;6.064;2023-02-23T02:13:12;103.07;;;44.78;;
76640;SDS011;65538;50.798;6.064;2023-02-23T02:15:46;102.00;;;44.35;;
76640;SDS011;65538;50.798;6.064;2023-02-23T02:21:09;91.78;;;41.38;;
76640;SDS011;65538;50.798;6.064;2023-02-23T02:26:45;81.65;;;37.67;;
76640;SDS011;65538;50.798;6.064;2023-02-23T02:34:13;93.27;;;41.57;;
76640;SDS011;65538;50.798;6.064;2023-02-23T02:44:41;79.72;;;37.65;;
76640;SDS011;65538;50.798;6.064;2023-02-23T02:47:16;83.15;;;37.03;;
76640;SDS011;65538;50.798;6.064;2023-02-23T02:49:50;78.50;;;36.53;;
76640;SDS011;65538;50.798;6.064;2023-02-23T02:52:22;74.55;;;34.67;;
76640;SDS011;65538;50.798;6.064;2023-02-23T02:54:52;69.95;;;33.25;;
76640;SDS011;65538;50.798;6.064;2023-02-23T02:57:21;68.57;;;33.58;;
76640;SDS011;65538;50.798;6.064;2023-02-23T02:59:48;68.88;;;33.35;;
76640;SDS011;65538;50.798;6.064;2023-02-23T03:02:36;68.07;;;31.80;;
76640;SDS011;65538;50.798;6.064;2023-02-23T03:05:22;65.70;;;31.85;;
76640;SDS011;65538;50.798;6.064;2023-02-23T03:08:20;63.95;;;29.60;;
76640;SDS011;65538;50.798;6.064;2023-02-23T03:11:06;64.32;;;30.13;;
76640;SDS011;65538;50.798;6.064;2023-02-23T03:19:22;64.97;;;29.77;;
76640;SDS011;65538;50.798;6.064;2023-02-23T03:22:20;72.75;;;32.15;;
76640;SDS011;65538;50.798;6.064;2023-02-23T03:25:50;77.25;;;34.35;;
76640;SDS011;65538;50.798;6.064;2023-02-23T03:28:17;77.60;;;33.88;;
76640;SDS011;65538;50.798;6.064;2023-02-23T03:31:08;82.72;;;33.17;;
76640;SDS011;65538;50.798;6.064;2023-02-23T03:36:46;77.93;;;33.38;;
76640;SDS011;65538;50.798;6.064;2023-02-23T03:39:33;72.20;;;32.42;;
76640;SDS011;65538;50.798;6.064;2023-02-23T03:42:18;68.93;;;30.67;;
76640;SDS011;65538;50.798;6.064;2023-02-23T03:45:04;68.10;;;30.05;;
76640;SDS011;65538;50.798;6.064;2023-02-23T03:47:48;68.35;;;30.45;;
76640;SDS011;65538;50.798;6.064;2023-02-23T03:50:37;64.35;;;28.63;;
76640;SDS011;65538;50.798;6.064;2023-02-23T03:53:26;66.70;;;30.85;;
76640;SDS011;65538;50.798;6.064;2023-02-23T03:56:11;62.08;;;28.77;;
76640;SDS011;65538;50.798;6.064;2023-02-23T03:58:58;65.60;;;28.42;;
76640;SDS011;65538;50.798;6.064;2023-02-23T04:04:28;70.18;;;30.85;;
76640;SDS011;65538;50.798;6.064;2023-02-23T04:07:12;72.22;;;31.58;;
76640;SDS011;65538;50.798;6.064;2023-02-23T04:09:58;74.95;;;32.83;;
76640;SDS011;65538;50.798;6.064;2023-02-23T04:12:59;82.00;;;34.05;;
76640;SDS011;65538;50.798;6.064;2023-02-23T04:15:48;90.25;;;36.45;;
76640;SDS011;65538;50.798;6.064;2023-02-23T04:18:18;86.75;;;34.80;;
76640;SDS011;65538;50.798;6.064;2023-02-23T04:20:44;82.78;;;33.47;;
76640;SDS011;65538;50.798;6.064;2023-02-23T04:23:09;87.67;;;34.83;;
76640;SDS011;65538;50.798;6.064;2023-02-23T04:25:35;94.97;;;38.80;;
76640;SDS011;65538;50.798;6.064;2023-02-23T04:28:00;91.70;;;37.70;;
76640;SDS011;65538;50.798;6.064;2023-02-23T04:30:25;101.73;;;42.17;;
76640;SDS011;65538;50.798;6.064;2023-02-23T04:32:52;98.25;;;39.83;;
76640;SDS011;65538;50.798;6.064;2023-02-23T04:35:17;91.82;;;38.08;;
76640;SDS011;65538;50.798;6.064;2023-02-23T04:37:42;92.20;;;39.30;;
76640;SDS011;65538;50.798;6.064;2023-02-23T04:40:09;97.83;;;39.27;;
76640;SDS011;65538;50.798;6.064;2023-02-23T04:42:34;93.45;;;39.03;;
76640;SDS011;65538;50.798;6.064;2023-02-23T04:45:00;96.95;;;39.63;;
76640;SDS011;65538;50.798;6.064;2023-02-23T04:47:25;84.20;;;38.03;;
76640;SDS011;65538;50.798;6.064;2023-02-23T04:49:50;83.97;;;37.27;;
76640;SDS011;65538;50.798;6.064;2023-02-23T04:52:16;80.37;;;34.37;;
76640;SDS011;65538;50.798;6.064;2023-02-23T04:54:41;77.18;;;36.38;;
76640;SDS011;65538;50.798;6.064;2023-02-23T04:57:07;78.03;;;35.28;;
76640;SDS011;65538;50.798;6.064;2023-02-23T04:59:33;79.40;;;35.03;;
76640;SDS011;65538;50.798;6.064;2023-02-23T05:01:58;79.37;;;37.43;;
76640;SDS011;65538;50.798;6.064;2023-02-23T05:04:23;81.47;;;36.03;;
76640;SDS011;65538;50.798;6.064;2023-02-23T05:06:49;80.80;;;35.53;;
76640;SDS011;65538;50.798;6.064;2023-02-23T05:09:14;76.30;;;35.87;;
76640;SDS011;65538;50.798;6.064;2023-02-23T05:11:39;75.37;;;35.10;;
76640;SDS011;65538;50.798;6.064;2023-02-23T05:14:04;82.60;;;34.53;;
76640;SDS011;65538;50.798;6.064;2023-02-23T05:16:29;70.77;;;33.37;;
76640;SDS011;65538;50.798;6.064;2023-02-23T05:18:55;85.97;;;39.13;;
76640;SDS011;65538;50.798;6.064;2023-02-23T05:21:20;84.13;;;37.50;;
76640;SDS011;65538;50.798;6.064;2023-02-23T05:23:45;80.07;;;38.00;;
76640;SDS011;65538;50.798;6.064;2023-02-23T05:26:11;78.70;;;36.25;;
76640;SDS011;65538;50.798;6.064;2023-02-23T05:28:37;83.93;;;39.22;;
76640;SDS011;65538;50.798;6.064;2023-02-23T05:31:03;79.80;;;37.00;;
76640;SDS011;65538;50.798;6.064;2023-02-23T05:33:31;76.40;;;34.13;;
76640;SDS011;65538;50.798;6.064;2023-02-23T05:35:57;77.45;;;35.65;;
76640;SDS011;65538;50.798;6.064;2023-02-23T05:38:22;72.03;;;33.40;;
76640;SDS011;65538;50.798;6.064;2023-02-23T05:40:48;69.63;;;31.60;;
76640;SDS011;65538;50.798;6.064;2023-02-23T05:43:13;80.30;;;35.17;;
76640;SDS011;65538;50.798;6.064;2023-02-23T05:45:39;76.53;;;34.03;;
76640;SDS011;65538;50.798;6.064;2023-02-23T05:48:05;85.22;;;38.97;;
76640;SDS011;65538;50.798;6.064;2023-02-23T05:50:30;78.63;;;35.90;;
76640;SDS011;65538;50.798;6.064;2023-02-23T05:52:55;89.23;;;38.23;;
76640;SDS011;65538;50.798;6.064;2023-02-23T05:55:21;81.20;;;37.80;;
76640;SDS011;65538;50.798;6.064;2023-02-23T05:57:46;83.93;;;37.90;;
76640;SDS011;65538;50.798;6.064;2023-02-23T06:00:11;83.40;;;36.27;;
76640;SDS011;65538;50.798;6.064;2023-02-23T06:02:39;78.68;;;36.33;;
76640;SDS011;65538;50.798;6.064;2023-02-23T06:05:05;77.45;;;35.65;;
76640;SDS011;65538;50.798;6.064;2023-02-23T06:07:31;84.30;;;36.80;;
76640;SDS011;65538;50.798;6.064;2023-02-23T06:09:56;76.40;;;36.53;;
76640;SDS011;65538;50.798;6.064;2023-02-23T06:12:21;84.23;;;37.03;;
76640;SDS011;65538;50.798;6.064;2023-02-23T06:14:47;84.55;;;37.13;;
76640;SDS011;65538;50.798;6.064;2023-02-23T06:17:14;87.57;;;36.17;;
76640;SDS011;65538;50.798;6.064;2023-02-23T06:19:39;81.87;;;37.30;;
76640;SDS011;65538;50.798;6.064;2023-02-23T06:22:05;77.03;;;36.07;;
76640;SDS011;65538;50.798;6.064;2023-02-23T06:24:30;89.90;;;41.93;;
76640;SDS011;65538;50.798;6.064;2023-02-23T06:26:55;85.63;;;38.03;;
76640;SDS011;65538;50.798;6.064;2023-02-23T06:29:20;90.13;;;39.33;;
76640;SDS011;65538;50.798;6.064;2023-02-23T06:31:46;91.47;;;46.90;;
76640;SDS011;65538;50.798;6.064;2023-02-23T06:34:11;80.87;;;36.03;;
76640;SDS011;65538;50.798;6.064;2023-02-23T06:36:36;79.73;;;36.33;;
76640;SDS011;65538;50.798;6.064;2023-02-23T06:39:02;76.80;;;34.40;;
76640;SDS011;65538;50.798;6.064;2023-02-23T06:41:27;78.50;;;36.53;;
76640;SDS011;65538;50.798;6.064;2023-02-23T06:43:52;79.10;;;35.90;;
76640;SDS011;65538;50.798;6.064;2023-02-23T06:46:18;75.23;;;35.83;;
76640;SDS011;65538;50.798;6.064;2023-02-23T06:48:43;74.17;;;35.47;;
76640;SDS011;65538;50.798;6.064;2023-02-23T06:51:08;79.73;;;37.90;;
76640;SDS011;65538;50.798;6.064;2023-02-23T06:53:34;81.95;;;37.90;;
76640;SDS011;65538;50.798;6.064;2023-02-23T06:55:59;72.90;;;36.35;;
76640;SDS011;65538;50.798;6.064;2023-02-23T06:58:25;72.03;;;33.60;;
76640;SDS011;65538;50.798;6.064;2023-02-23T07:00:50;69.90;;;30.60;;
76640;SDS011;65538;50.798;6.064;2023-02-23T07:03:16;61.23;;;29.70;;
76640;SDS011;65538;50.798;6.064;2023-02-23T07:05:43;59.47;;;30.25;;
76640;SDS011;65538;50.798;6.064;2023-02-23T07:08:08;60.13;;;30.67;;
76640;SDS011;65538;50.798;6.064;2023-02-23T07:10:34;70.50;;;34.80;;
76640;SDS011;65538;50.798;6.064;2023-02-23T07:12:59;68.03;;;34.27;;
76640;SDS011;65538;50.798;6.064;2023-02-23T07:15:24;66.30;;;31.20;;
76640;SDS011;65538;50.798;6.064;2023-02-23T07:17:50;64.13;;;31.03;;
76640;SDS011;65538;50.798;6.064;2023-02-23T07:20:16;62.33;;;30.73;;
76640;SDS011;65538;50.798;6.064;2023-02-23T07:22:42;59.72;;;30.23;;
76640;SDS011;65538;50.798;6.064;2023-02-23T07:25:07;57.35;;;29.15;;
76640;SDS011;65538;50.798;6.064;2023-02-23T07:27:33;61.03;;;30.50;;
76640;SDS011;65538;50.798;6.064;2023-02-23T07:29:58;70.10;;;33.42;;
76640;SDS011;65538;50.798;6.064;2023-02-23T07:32:24;64.20;;;30.67;;
76640;SDS011;65538;50.798;6.064;2023-02-23T07:34:49;63.67;;;32.28;;
76640;SDS011;65538;50.798;6.064;2023-02-23T07:37:14;67.87;;;33.53;;
76640;SDS011;65538;50.798;6.064;2023-02-23T07:39:41;71.20;;;33.13;;
76640;SDS011;65538;50.798;6.064;2023-02-23T07:42:06;59.33;;;30.13;;
76640;SDS011;65538;50.798;6.064;2023-02-23T07:44:31;65.87;;;32.73;;
76640;SDS011;65538;50.798;6.064;2023-02-23T07:46:56;68.97;;;32.77;;
76640;SDS011;65538;50.798;6.064;2023-02-23T07:49:21;66.97;;;33.87;;
76640;SDS011;65538;50.798;6.064;2023-02-23T07:51:47;72.53;;;33.60;;
76640;SDS011;65538;50.798;6.064;2023-02-23T07:54:12;73.70;;;33.17;;
76640;SDS011;65538;50.798;6.064;2023-02-23T07:56:38;71.83;;;34.00;;
76640;SDS011;65538;50.798;6.064;2023-02-23T07:59:03;66.03;;;33.22;;
76640;SDS011;65538;50.798;6.064;2023-02-23T08:01:28;68.90;;;32.60;;
76640;SDS011;65538;50.798;6.064;2023-02-23T08:03:53;69.40;;;32.40;;
76640;SDS011;65538;50.798;6.064;2023-02-23T08:06:19;63.53;;;31.57;;
76640;SDS011;65538;50.798;6.064;2023-02-23T08:08:44;61.53;;;30.45;;
76640;SDS011;65538;50.798;6.064;2023-02-23T08:11:10;60.73;;;29.33;;
76640;SDS011;65538;50.798;6.064;2023-02-23T08:13:36;56.80;;;28.63;;
76640;SDS011;65538;50.798;6.064;2023-02-23T08:16:01;51.65;;;26.27;;
76640;SDS011;65538;50.798;6.064;2023-02-23T08:18:26;48.30;;;24.33;;
76640;SDS011;65538;50.798;6.064;2023-02-23T08:20:58;42.57;;;21.63;;
76640;SDS011;65538;50.798;6.064;2023-02-23T08:23:24;44.15;;;25.70;;
76640;SDS011;65538;50.798;6.064;2023-02-23T08:25:49;52.03;;;27.10;;
76640;SDS011;65538;50.798;6.064;2023-02-23T08:28:14;48.50;;;24.43;;
76640;SDS011;65538;50.798;6.064;2023-02-23T08:30:40;50.42;;;25.45;;
76640;SDS011;65538;50.798;6.064;2023-02-23T08:33:05;46.87;;;25.60;;
76640;SDS011;65538;50.798;6.064;2023-02-23T08:35:31;43.72;;;24.55;;
76640;SDS011;65538;50.798;6.064;2023-02-23T08:37:56;44.53;;;23.73;;
76640;SDS011;65538;50.798;6.064;2023-02-23T08:40:21;43.70;;;24.27;;
76640;SDS011;65538;50.798;6.064;2023-02-23T08:42:47;45.20;;;28.00;;
76640;SDS011;65538;50.798;6.064;2023-02-23T08:45:18;46.85;;;26.88;;
76640;SDS011;65538;50.798;6.064;2023-02-23T08:47:43;43.28;;;24.00;;
76640;SDS011;65538;50.798;6.064;2023-02-23T08:50:08;43.90;;;22.77;;
76640;SDS011;65538;50.798;6.064;2023-02-23T08:52:35;39.03;;;22.38;;
76640;SDS011;65538;50.798;6.064;2023-02-23T08:55:00;39.63;;;22.67;;
76640;SDS011;65538;50.798;6.064;2023-02-23T08:57:25;40.47;;;23.10;;
76640;SDS011;65538;50.798;6.064;2023-02-23T08:59:51;37.90;;;22.00;;
76640;SDS011;65538;50.798;6.064;2023-02-23T09:02:16;37.03;;;20.95;;
76640;SDS011;65538;50.798;6.064;2023-02-23T09:04:41;40.60;;;23.03;;
76640;SDS011;65538;50.798;6.064;2023-02-23T09:07:08;41.80;;;22.90;;
76640;SDS011;65538;50.798;6.064;2023-02-23T09:09:33;40.13;;;22.05;;
76640;SDS011;65538;50.798;6.064;2023-02-23T09:11:58;38.83;;;22.07;;
76640;SDS011;65538;50.798;6.064;2023-02-23T09:14:24;37.60;;;21.38;;
76640;SDS011;65538;50.798;6.064;2023-02-23T09:16:49;38.53;;;21.50;;
76640;SDS011;65538;50.798;6.064;2023-02-23T09:19:14;39.50;;;22.97;;
76640;SDS011;65538;50.798;6.064;2023-02-23T09:21:40;39.20;;;21.30;;
76640;SDS011;65538;50.798;6.064;2023-02-23T09:24:05;37.40;;;22.27;;
76640;SDS011;65538;50.798;6.064;2023-02-23T09:26:30;35.80;;;21.33;;
76640;SDS011;65538;50.798;6.064;2023-02-23T09:28:58;42.47;;;22.90;;
76640;SDS011;65538;50.798;6.064;2023-02-23T09:31:23;39.08;;;23.15;;
76640;SDS011;65538;50.798;6.064;2023-02-23T09:33:49;40.60;;;22.37;;
76640;SDS011;65538;50.798;6.064;2023-02-23T09:36:19;36.90;;;22.40;;
76640;SDS011;65538;50.798;6.064;2023-02-23T09:38:45;36.90;;;24.20;;
76640;SDS011;65538;50.798;6.064;2023-02-23T09:49:04;34.17;;;21.83;;
76640;SDS011;65538;50.798;6.064;2023-02-23T09:51:30;35.15;;;20.08;;
76640;SDS011;65538;50.798;6.064;2023-02-23T09:53:58;29.77;;;18.55;;
76640;SDS011;65538;50.798;6.064;2023-02-23T09:56:29;29.42;;;18.45;;
76640;SDS011;65538;50.798;6.064;2023-02-23T09:58:57;29.83;;;18.30;;
76640;SDS011;65538;50.798;6.064;2023-02-23T10:01:44;30.70;;;19.05;;
76640;SDS011;65538;50.798;6.064;2023-02-23T10:04:31;30.95;;;18.55;;
76640;SDS011;65538;50.798;6.064;2023-02-23T10:09:37;34.47;;;19.63;;
76640;SDS011;65538;50.798;6.064;2023-02-23T10:12:07;43.80;;;23.95;;
76640;SDS011;65538;50.798;6.064;2023-02-23T10:22:22;56.50;;;27.45;;
76640;SDS011;65538;50.798;6.064;2023-02-23T10:24:53;51.47;;;28.33;;
76640;SDS011;65538;50.798;6.064;2023-02-23T10:27:20;51.90;;;26.08;;
76640;SDS011;65538;50.798;6.064;2023-02-23T10:29:55;51.83;;;24.40;;
76640;SDS011;65538;50.798;6.064;2023-02-23T10:34:47;49.73;;;22.70;;
76640;SDS011;65538;50.798;6.064;2023-02-23T10:37:13;48.60;;;25.55;;
76640;SDS011;65538;50.798;6.064;2023-02-23T10:39:40;49.28;;;25.05;;
76640;SDS011;65538;50.798;6.064;2023-02-23T10:42:06;58.28;;;26.52;;
76640;SDS011;65538;50.798;6.064;2023-02-23T10:44:37;54.45;;;25.00;;
76640;SDS011;65538;50.798;6.064;2023-02-23T10:47:21;62.85;;;26.52;;
76640;SDS011;65538;50.798;6.064;2023-02-23T10:49:49;70.25;;;26.10;;
76640;SDS011;65538;50.798;6.064;2023-02-23T10:54:47;59.03;;;24.17;;
76640;SDS011;65538;50.798;6.064;2023-02-23T10:57:21;54.33;;;22.35;;
76640;SDS011;65538;50.798;6.064;2023-02-23T11:02:24;52.15;;;21.60;;
76640;SDS011;65538;50.798;6.064;2023-02-23T11:04:51;53.70;;;19.23;;
76640;SDS011;65538;50.798;6.064;2023-02-23T11:07:20;45.08;;;20.58;;
76640;SDS011;65538;50.798;6.064;2023-02-23T11:09:45;45.28;;;17.45;;
76640;SDS011;65538;50.798;6.064;2023-02-23T11:12:21;48.07;;;19.03;;
76640;SDS011;65538;50.798;6.064;2023-02-23T11:14:51;49.25;;;21.08;;
76640;SDS011;65538;50.798;6.064;2023-02-23T11:17:32;46.40;;;17.55;;
76640;SDS011;65538;50.798;6.064;2023-02-23T11:20:02;44.35;;;18.42;;
76640;SDS011;65538;50.798;6.064;2023-02-23T11:22:32;47.03;;;19.52;;
76640;SDS011;65538;50.798;6.064;2023-02-23T11:24:58;49.95;;;18.77;;
76640;SDS011;65538;50.798;6.064;2023-02-23T11:27:25;48.63;;;18.23;;
76640;SDS011;65538;50.798;6.064;2023-02-23T11:29:51;51.95;;;19.83;;
76640;SDS011;65538;50.798;6.064;2023-02-23T11:32:19;54.17;;;18.95;;
76640;SDS011;65538;50.798;6.064;2023-02-23T11:34:46;52.63;;;19.23;;
76640;SDS011;65538;50.798;6.064;2023-02-23T11:42:19;73.57;;;22.63;;
76640;SDS011;65538;50.798;6.064;2023-02-23T11:44:51;71.40;;;23.65;;
76640;SDS011;65538;50.798;6.064;2023-02-23T11:47:20;69.80;;;24.65;;
76640;SDS011;65538;50.798;6.064;2023-02-23T11:49:46;73.65;;;25.00;;
76640;SDS011;65538;50.798;6.064;2023-02-23T11:52:19;77.85;;;22.83;;
76640;SDS011;65538;50.798;6.064;2023-02-23T11:55:04;71.50;;;22.77;;
76640;SDS011;65538;50.798;6.064;2023-02-23T11:57:32;77.30;;;24.77;;
76640;SDS011;65538;50.798;6.064;2023-02-23T11:59:58;77.88;;;25.70;;
76640;SDS011;65538;50.798;6.064;2023-02-23T12:02:30;72.88;;;23.00;;
76640;SDS011;65538;50.798;6.064;2023-02-23T12:05:12;75.13;;;22.52;;
76640;SDS011;65538;50.798;6.064;2023-02-23T12:10:33;87.70;;;26.67;;
76640;SDS011;65538;50.798;6.064;2023-02-23T12:21:01;82.32;;;23.20;;
76640;SDS011;65538;50.798;6.064;2023-02-23T12:23:30;73.20;;;22.60;;
76640;SDS011;65538;50.798;6.064;2023-02-23T12:26:03;74.13;;;23.27;;
76640;SDS011;65538;50.798;6.064;2023-02-23T12:28:42;67.13;;;21.80;;
76640;SDS011;65538;50.798;6.064;2023-02-23T12:36:49;61.00;;;20.50;;
76640;SDS011;65538;50.798;6.064;2023-02-23T12:41:44;58.15;;;18.75;;
76640;SDS011;65538;50.798;6.064;2023-02-23T12:46:40;48.67;;;17.20;;
76640;SDS011;65538;50.798;6.064;2023-02-23T12:51:59;47.50;;;16.85;;
76640;SDS011;65538;50.798;6.064;2023-02-23T12:54:26;50.42;;;17.10;;
76640;SDS011;65538;50.798;6.064;2023-02-23T12:56:53;42.17;;;15.50;;
76640;SDS011;65538;50.798;6.064;2023-02-23T13:02:16;38.53;;;14.82;;
76640;SDS011;65538;50.798;6.064;2023-02-23T13:07:23;34.72;;;13.57;;
76640;SDS011;65538;50.798;6.064;2023-02-23T13:15:00;35.27;;;13.87;;
76640;SDS011;65538;50.798;6.064;2023-02-23T13:17:36;36.33;;;14.32;;
76640;SDS011;65538;50.798;6.064;2023-02-23T13:20:10;39.08;;;14.68;;
76640;SDS011;65538;50.798;6.064;2023-02-23T13:27:51;34.63;;;13.00;;
76640;SDS011;65538;50.798;6.064;2023-02-23T13:30:19;33.50;;;13.40;;
76640;SDS011;65538;50.798;6.064;2023-02-23T13:32:45;32.05;;;13.15;;
76640;SDS011;65538;50.798;6.064;2023-02-23T13:35:14;31.15;;;12.88;;
76640;SDS011;65538;50.798;6.064;2023-02-23T13:37:53;32.25;;;12.15;;
76640;SDS011;65538;50.798;6.064;2023-02-23T13:43:01;30.67;;;11.57;;
76640;SDS011;65538;50.798;6.064;2023-02-23T13:48:12;32.72;;;13.55;;
76640;SDS011;65538;50.798;6.064;2023-02-23T13:51:42;31.85;;;12.93;;
76640;SDS011;65538;50.798;6.064;2023-02-23T13:53:39;33.58;;;12.45;;
76640;SDS011;65538;50.798;6.064;2023-02-23T13:56:26;35.35;;;13.40;;
76640;SDS011;65538;50.798;6.064;2023-02-23T13:59:14;30.08;;;12.02;;
76640;SDS011;65538;50.798;6.064;2023-02-23T14:01:39;33.17;;;12.38;;
76640;SDS011;65538;50.798;6.064;2023-02-23T14:04:40;27.60;;;10.40;;
76640;SDS011;65538;50.798;6.064;2023-02-23T14:09:37;29.35;;;11.73;;
76640;SDS011;65538;50.798;6.064;2023-02-23T14:12:15;23.85;;;10.35;;
76640;SDS011;65538;50.798;6.064;2023-02-23T14:14:44;27.00;;;11.50;;
76640;SDS011;65538;50.798;6.064;2023-02-23T14:19:36;30.63;;;12.27;;
76640;SDS011;65538;50.798;6.064;2023-02-23T14:22:08;27.15;;;11.23;;
76640;SDS011;65538;50.798;6.064;2023-02-23T14:24:34;28.10;;;11.90;;
76640;SDS011;65538;50.798;6.064;2023-02-23T14:29:29;24.80;;;10.55;;
76640;SDS011;65538;50.798;6.064;2023-02-23T14:32:03;26.77;;;11.52;;
76640;SDS011;65538;50.798;6.064;2023-02-23T14:34:41;27.67;;;11.43;;
76640;SDS011;65538;50.798;6.064;2023-02-23T14:39:41;27.77;;;10.65;;
76640;SDS011;65538;50.798;6.064;2023-02-23T14:42:06;29.93;;;12.10;;
76640;SDS011;65538;50.798;6.064;2023-02-23T14:44:35;30.90;;;12.33;;
76640;SDS011;65538;50.798;6.064;2023-02-23T14:47:07;29.02;;;12.25;;
76640;SDS011;65538;50.798;6.064;2023-02-23T14:49:36;28.50;;;11.82;;
76640;SDS011;65538;50.798;6.064;2023-02-23T14:52:05;27.58;;;12.02;;
76640;SDS011;65538;50.798;6.064;2023-02-23T14:54:35;26.25;;;11.13;;
76640;SDS011;65538;50.798;6.064;2023-02-23T14:57:02;27.75;;;12.15;;
76640;SDS011;65538;50.798;6.064;2023-02-23T14:59:29;25.13;;;10.25;;
76640;SDS011;65538;50.798;6.064;2023-02-23T15:01:59;30.50;;;10.95;;
76640;SDS011;65538;50.798;6.064;2023-02-23T15:04:25;32.60;;;11.30;;
76640;SDS011;65538;50.798;6.064;2023-02-23T15:07:00;31.23;;;11.95;;
76640;SDS011;65538;50.798;6.064;2023-02-23T15:09:37;26.95;;;11.35;;
76640;SDS011;65538;50.798;6.064;2023-02-23T15:12:14;26.80;;;11.25;;
76640;SDS011;65538;50.798;6.064;2023-02-23T15:14:40;26.10;;;10.60;;
76640;SDS011;65538;50.798;6.064;2023-02-23T15:17:09;31.67;;;11.50;;
76640;SDS011;65538;50.798;6.064;2023-02-23T15:19:36;29.85;;;12.60;;
76640;SDS011;65538;50.798;6.064;2023-02-23T15:22:03;29.15;;;11.50;;
76640;SDS011;65538;50.798;6.064;2023-02-23T15:24:30;31.58;;;12.25;;
76640;SDS011;65538;50.798;6.064;2023-02-23T15:26:56;31.50;;;11.93;;
76640;SDS011;65538;50.798;6.064;2023-02-23T15:29:22;31.30;;;13.05;;
76640;SDS011;65538;50.798;6.064;2023-02-23T15:31:50;25.80;;;12.00;;
76640;SDS011;65538;50.798;6.064;2023-02-23T15:34:20;32.03;;;11.82;;
76640;SDS011;65538;50.798;6.064;2023-02-23T15:36:46;33.28;;;12.23;;
76640;SDS011;65538;50.798;6.064;2023-02-23T15:39:14;31.75;;;11.95;;
76640;SDS011;65538;50.798;6.064;2023-02-23T15:41:41;31.48;;;11.90;;
76640;SDS011;65538;50.798;6.064;2023-02-23T15:46:36;33.13;;;13.63;;
76640;SDS011;65538;50.798;6.064;2023-02-23T15:49:02;29.40;;;12.63;;
76640;SDS011;65538;50.798;6.064;2023-02-23T15:51:45;36.30;;;12.95;;
76640;SDS011;65538;50.798;6.064;2023-02-23T15:54:37;30.35;;;11.85;;
76640;SDS011;65538;50.798;6.064;2023-02-23T15:57:05;37.65;;;13.13;;
76640;SDS011;65538;50.798;6.064;2023-02-23T15:59:34;33.70;;;12.15;;
76640;SDS011;65538;50.798;6.064;2023-02-23T16:02:00;42.83;;;14.65;;
76640;SDS011;65538;50.798;6.064;2023-02-23T16:04:37;35.75;;;13.75;;
76640;SDS011;65538;50.798;6.064;2023-02-23T16:09:31;37.70;;;13.73;;
76640;SDS011;65538;50.798;6.064;2023-02-23T16:12:11;31.98;;;13.70;;
76640;SDS011;65538;50.798;6.064;2023-02-23T16:19:53;34.00;;;13.60;;
76640;SDS011;65538;50.798;6.064;2023-02-23T16:22:20;39.08;;;15.48;;
76640;SDS011;65538;50.798;6.064;2023-02-23T16:24:48;31.20;;;14.02;;
76640;SDS011;65538;50.798;6.064;2023-02-23T16:27:16;40.50;;;15.57;;
76640;SDS011;65538;50.798;6.064;2023-02-23T16:29:42;37.33;;;15.32;;
76640;SDS011;65538;50.798;6.064;2023-02-23T16:32:31;42.80;;;16.15;;
76640;SDS011;65538;50.798;6.064;2023-02-23T16:34:58;39.50;;;15.38;;
76640;SDS011;65538;50.798;6.064;2023-02-23T16:37:25;39.17;;;15.15;;
76640;SDS011;65538;50.798;6.064;2023-02-23T16:39:51;41.45;;;14.95;;